createdAt,value
2023-03-13T00:00:44.855Z,9.25
2023-03-13T00:01:48.631Z,5.00
2023-03-13T00:02:51.218Z,7.25
2023-03-13T00:03:55.154Z,7.50
2023-03-13T00:04:57.737Z,7.00
2023-03-13T00:05:59.489Z,7.00
2023-03-13T00:07:02.043Z,9.00
2023-03-13T00:08:03.940Z,5.00
2023-03-13T00:09:07.193Z,5.00
2023-03-13T00:10:09.556Z,7.00
2023-03-13T00:11:12.907Z,7.25
2023-03-13T00:12:15.527Z,7.50
2023-03-13T00:13:17.132Z,7.75
2023-03-13T00:14:19.691Z,7.50
2023-03-13T00:15:21.270Z,7.50
2023-03-13T00:16:24.099Z,7.50
2023-03-13T00:17:27.076Z,7.00
2023-03-13T00:18:29.664Z,7.50
2023-03-13T00:19:31.251Z,8.00
2023-03-13T00:20:33.819Z,7.00
2023-03-13T00:21:37.527Z,10.00
2023-03-13T00:22:40.098Z,8.00
2023-03-13T00:23:41.713Z,9.25
2023-03-13T00:24:44.316Z,9.50
2023-03-13T00:25:45.889Z,7.50
2023-03-13T00:26:48.831Z,8.00
2023-03-13T00:27:50.418Z,7.00
2023-03-13T00:28:53.158Z,5.75
2023-03-13T00:29:54.750Z,7.00
2023-03-13T00:31:04.171Z,7.50
2023-03-13T00:32:07.017Z,7.75
2023-03-13T00:33:10.041Z,5.00
2023-03-13T00:34:12.671Z,7.00
2023-03-13T00:35:14.458Z,8.00
2023-03-13T00:36:18.254Z,7.25
2023-03-13T00:37:20.836Z,5.75
2023-03-13T00:38:22.490Z,6.25
2023-03-13T00:39:25.052Z,4.75
2023-03-13T00:40:26.652Z,5.00
2023-03-13T00:41:29.918Z,7.00
2023-03-13T00:42:31.693Z,7.25
2023-03-13T00:43:34.365Z,4.25
2023-03-13T00:44:35.958Z,5.75
2023-03-13T00:45:38.525Z,9.25
2023-03-13T00:46:40.113Z,7.50
2023-03-13T00:47:42.686Z,4.50
2023-03-13T00:48:45.770Z,6.00
2023-03-13T00:49:48.330Z,5.25
2023-03-13T00:50:49.901Z,7.00
2023-03-13T00:51:52.445Z,8.75
2023-03-13T00:52:54.385Z,7.00
2023-03-13T00:53:57.392Z,5.75
2023-03-13T00:54:59.020Z,7.00
2023-03-13T00:56:02.537Z,7.75
2023-03-13T00:57:04.330Z,7.00
2023-03-13T00:58:06.913Z,5.00
2023-03-13T00:59:08.487Z,6.75
2023-03-13T01:00:12.864Z,7.25
2023-03-13T01:01:16.000Z,5.75
2023-03-13T01:02:18.663Z,7.25
2023-03-13T01:03:20.573Z,7.00
2023-03-13T01:04:24.596Z,6.25
2023-03-13T01:05:26.178Z,6.25
2023-03-13T01:06:29.501Z,7.00
2023-03-13T01:07:31.091Z,5.00
2023-03-13T01:08:34.016Z,7.00
2023-03-13T01:09:35.610Z,9.25
2023-03-13T01:10:38.219Z,5.00
2023-03-13T01:11:41.461Z,9.50
2023-03-13T01:12:43.057Z,6.00
2023-03-13T01:13:45.812Z,5.00
2023-03-13T01:14:49.844Z,7.00
2023-03-13T01:15:52.604Z,7.25
2023-03-13T01:16:54.227Z,8.50
2023-03-13T01:17:56.769Z,7.25
2023-03-13T01:18:59.958Z,7.00
2023-03-13T01:20:05.501Z,7.00
2023-03-13T01:21:07.119Z,7.00
2023-03-13T01:22:11.174Z,7.75
2023-03-13T01:23:12.757Z,5.25
2023-03-13T01:24:16.614Z,5.50
2023-03-13T01:25:18.348Z,7.25
2023-03-13T01:26:21.208Z,7.00
2023-03-13T01:27:22.800Z,5.50
2023-03-13T01:28:25.646Z,5.00
2023-03-13T01:29:27.355Z,7.00
2023-03-13T01:30:29.928Z,5.00
2023-03-13T01:31:33.510Z,6.50
2023-03-13T01:32:36.013Z,7.00
2023-03-13T01:33:38.598Z,7.00
2023-03-13T01:34:40.726Z,5.00
2023-03-13T01:35:44.739Z,7.50
2023-03-13T01:36:50.439Z,7.00
2023-03-13T01:37:53.006Z,8.00
2023-03-13T01:38:55.327Z,4.50
2023-03-13T01:39:57.914Z,7.00
2023-03-13T01:40:59.508Z,6.00
2023-03-13T01:42:02.049Z,5.00
2023-03-13T01:43:17.562Z,5.00
2023-03-13T01:44:28.407Z,7.00
2023-03-13T01:45:57.058Z,4.75
2023-03-13T01:46:59.632Z,8.00
2023-03-13T01:48:01.222Z,7.75
2023-03-13T01:49:04.672Z,6.00
2023-03-13T01:50:06.651Z,5.00
2023-03-13T01:51:13.166Z,7.00
2023-03-13T01:52:17.247Z,6.00
2023-03-13T01:53:18.835Z,5.00
2023-03-13T01:54:24.223Z,4.00
2023-03-13T01:55:25.891Z,4.00
2023-03-13T01:56:31.110Z,7.50
2023-03-13T01:57:33.534Z,5.25
2023-03-13T01:58:36.107Z,6.00
2023-03-13T01:59:41.104Z,7.00
2023-03-13T02:00:43.653Z,7.00
2023-03-13T02:01:47.408Z,4.50
2023-03-13T02:02:50.015Z,11.00
2023-03-13T02:03:52.578Z,7.00
2023-03-13T02:04:55.764Z,7.00
2023-03-13T02:05:58.349Z,5.50
2023-03-13T02:07:02.748Z,5.00
2023-03-13T02:08:07.540Z,5.00
2023-03-13T02:09:10.405Z,5.75
2023-03-13T02:10:12.978Z,6.50
2023-03-13T02:11:19.773Z,6.50
2023-03-13T02:12:25.259Z,7.00
2023-03-13T02:13:27.051Z,5.00
2023-03-13T02:14:29.954Z,6.50
2023-03-13T02:15:31.585Z,5.00
2023-03-13T02:16:34.197Z,10.25
2023-03-13T02:17:36.007Z,5.00
2023-03-13T02:18:38.938Z,7.00
2023-03-13T02:19:42.468Z,5.00
2023-03-13T02:20:45.076Z,7.00
2023-03-13T02:21:49.919Z,8.00
2023-03-13T02:22:56.027Z,5.75
2023-03-13T02:23:59.924Z,4.50
2023-03-13T02:25:04.149Z,8.25
2023-03-13T02:26:07.071Z,7.00
2023-03-13T02:27:09.709Z,4.50
2023-03-13T02:28:12.173Z,6.75
2023-03-13T02:29:18.352Z,4.00
2023-03-13T02:30:20.098Z,7.00
2023-03-13T02:31:22.760Z,5.00
2023-03-13T02:32:24.522Z,5.00
2023-03-13T02:33:28.046Z,7.00
2023-03-13T02:34:31.778Z,5.00
2023-03-13T02:35:34.390Z,7.50
2023-03-13T02:36:36.024Z,10.00
2023-03-13T02:37:38.677Z,5.25
2023-03-13T02:38:42.945Z,7.25
2023-03-13T02:39:47.361Z,5.25
2023-03-13T02:40:48.936Z,4.75
2023-03-13T02:41:52.841Z,7.50
2023-03-13T02:42:54.756Z,5.25
2023-03-13T02:43:57.311Z,7.25
2023-03-13T02:44:58.902Z,5.25
2023-03-13T02:46:03.193Z,5.75
2023-03-13T02:47:05.055Z,5.25
2023-03-13T02:48:07.774Z,4.00
2023-03-13T02:49:19.369Z,6.00
2023-03-13T02:50:22.255Z,4.00
2023-03-13T02:51:25.903Z,5.00
2023-03-13T02:52:30.089Z,2.00
2023-03-13T02:53:32.254Z,4.50
2023-03-13T02:54:35.831Z,5.00
2023-03-13T02:55:39.694Z,4.00
2023-03-13T02:56:43.223Z,5.00
2023-03-13T02:57:46.190Z,5.00
2023-03-13T02:58:50.403Z,5.00
2023-03-13T02:59:52.270Z,5.50
2023-03-13T03:00:55.071Z,6.25
2023-03-13T03:01:57.850Z,5.00
2023-03-13T03:02:59.450Z,5.00
2023-03-13T03:04:02.105Z,6.50
2023-03-13T03:05:04.200Z,4.25
2023-03-13T03:06:07.369Z,5.00
2023-03-13T03:07:08.963Z,5.50
2023-03-13T03:08:11.528Z,5.00
2023-03-13T03:09:13.239Z,4.25
2023-03-13T03:10:15.885Z,4.75
2023-03-13T03:11:17.563Z,4.75
2023-03-13T03:12:20.152Z,5.00
2023-03-13T03:13:23.107Z,4.00
2023-03-13T03:14:25.710Z,4.00
2023-03-13T03:15:27.487Z,4.75
2023-03-13T03:16:30.180Z,5.00
2023-03-13T03:17:31.794Z,5.00
2023-03-13T03:18:34.753Z,5.00
2023-03-13T03:19:36.423Z,4.00
2023-03-13T03:20:39.021Z,5.50
2023-03-13T03:21:40.618Z,5.00
2023-03-13T03:22:43.244Z,4.75
2023-03-13T03:23:44.853Z,2.00
2023-03-13T03:24:47.465Z,5.50
2023-03-13T03:25:49.060Z,5.00
2023-03-13T03:26:51.651Z,4.25
2023-03-13T03:27:53.327Z,5.00
2023-03-13T03:28:57.260Z,4.75
2023-03-13T03:29:58.883Z,4.00
2023-03-13T03:31:05.047Z,4.00
2023-03-13T03:32:06.885Z,3.50
2023-03-13T03:33:09.550Z,4.00
2023-03-13T03:34:11.165Z,7.00
2023-03-13T03:35:13.787Z,5.00
2023-03-13T03:36:16.282Z,4.50
2023-03-13T03:37:18.889Z,3.00
2023-03-13T03:38:20.499Z,5.00
2023-03-13T03:39:23.076Z,4.50
2023-03-13T03:40:25.099Z,4.75
2023-03-13T03:41:27.673Z,5.00
2023-03-13T03:42:29.335Z,5.00
2023-03-13T03:43:31.915Z,4.25
2023-03-13T03:44:34.877Z,7.00
2023-03-13T03:45:37.580Z,4.00
2023-03-13T03:46:39.257Z,7.00
2023-03-13T03:47:42.022Z,5.00
2023-03-13T03:48:43.626Z,5.00
2023-03-13T03:49:46.222Z,4.25
2023-03-13T03:50:47.863Z,4.00
2023-03-13T03:51:50.479Z,4.00
2023-03-13T03:52:52.100Z,4.00
2023-03-13T03:53:54.717Z,4.75
2023-03-13T03:54:56.336Z,5.00
2023-03-13T03:55:59.016Z,4.50
2023-03-13T03:57:00.605Z,5.50
2023-03-13T03:58:03.175Z,2.00
2023-03-13T03:59:04.772Z,4.00
2023-03-13T04:00:13.992Z,4.00
2023-03-13T04:01:15.666Z,4.00
2023-03-13T04:02:18.710Z,4.50
2023-03-13T04:03:20.384Z,3.00
2023-03-13T04:04:22.975Z,5.00
2023-03-13T04:05:24.683Z,2.75
2023-03-13T04:06:27.330Z,3.50
2023-03-13T04:07:28.934Z,2.00
2023-03-13T04:08:31.514Z,4.00
2023-03-13T04:09:33.114Z,4.00
2023-03-13T04:10:35.694Z,4.25
2023-03-13T04:11:37.403Z,4.00
2023-03-13T04:12:40.457Z,3.50
2023-03-13T04:13:42.041Z,2.00
2023-03-13T04:14:44.619Z,2.00
2023-03-13T04:15:48.725Z,2.00
2023-03-13T04:16:51.405Z,2.00
2023-03-13T04:17:53.125Z,2.00
2023-03-13T04:18:55.694Z,1.00
2023-03-13T04:19:57.296Z,1.25
2023-03-13T04:21:02.851Z,2.50
2023-03-13T04:22:04.537Z,2.00
2023-03-13T04:23:07.114Z,3.50
2023-03-13T04:24:08.987Z,2.00
2023-03-13T04:25:11.709Z,2.00
2023-03-13T04:26:13.333Z,1.75
2023-03-13T04:27:15.950Z,1.50
2023-03-13T04:28:17.560Z,2.00
2023-03-13T04:29:20.151Z,1.00
2023-03-13T04:30:21.971Z,1.25
2023-03-13T04:31:25.894Z,2.00
2023-03-13T04:32:27.595Z,2.50
2023-03-13T04:33:30.211Z,1.00
2023-03-13T04:34:31.847Z,1.00
2023-03-13T04:35:34.565Z,2.00
2023-03-13T04:36:36.295Z,2.00
2023-03-13T04:37:39.022Z,3.50
2023-03-13T04:38:40.617Z,2.00
2023-03-13T04:39:43.264Z,2.00
2023-03-13T04:40:46.753Z,2.00
2023-03-13T04:41:48.368Z,2.50
2023-03-13T04:42:51.110Z,1.00
2023-03-13T04:43:52.701Z,2.00
2023-03-13T04:44:55.266Z,2.00
2023-03-13T04:45:56.936Z,2.00
2023-03-13T04:47:00.912Z,1.75
2023-03-13T04:48:02.594Z,2.00
2023-03-13T04:49:07.671Z,1.50
2023-03-13T04:50:10.942Z,2.00
2023-03-13T04:51:13.691Z,1.50
2023-03-13T04:52:15.285Z,2.50
2023-03-13T04:53:17.906Z,2.00
2023-03-13T04:54:19.493Z,1.00
2023-03-13T04:55:22.090Z,3.50
2023-03-13T04:56:39.639Z,2.00
2023-03-13T04:57:44.554Z,1.75
2023-03-13T04:58:47.077Z,1.25
2023-03-13T04:59:49.770Z,1.00
2023-03-13T05:00:51.377Z,4.00
2023-03-13T05:01:54.036Z,1.25
2023-03-13T05:02:57.052Z,2.00
2023-03-13T05:03:59.695Z,1.25
2023-03-13T05:05:01.347Z,1.00
2023-03-13T05:06:03.967Z,1.50
2023-03-13T05:07:05.615Z,1.00
2023-03-13T05:08:08.705Z,1.00
2023-03-13T05:09:10.370Z,1.00
2023-03-13T05:10:13.002Z,1.00
2023-03-13T05:11:14.617Z,1.75
2023-03-13T05:12:17.274Z,1.50
2023-03-13T05:13:18.894Z,1.00
2023-03-13T05:14:21.809Z,2.00
2023-03-13T05:15:23.446Z,1.25
2023-03-13T05:16:26.400Z,1.00
2023-03-13T05:17:28.028Z,2.00
2023-03-13T05:18:31.993Z,1.00
2023-03-13T05:19:33.775Z,1.75
2023-03-13T05:20:36.365Z,1.25
2023-03-13T05:21:37.983Z,1.75
2023-03-13T05:22:40.573Z,1.00
2023-03-13T05:23:42.199Z,1.00
2023-03-13T05:24:44.822Z,1.00
2023-03-13T05:25:46.500Z,1.00
2023-03-13T05:26:49.090Z,1.00
2023-03-13T05:27:50.748Z,1.00
2023-03-13T05:28:53.322Z,1.00
2023-03-13T05:29:55.010Z,1.00
2023-03-13T05:30:58.820Z,1.00
2023-03-13T05:32:00.461Z,1.50
2023-03-13T05:33:03.061Z,1.00
2023-03-13T05:34:06.066Z,1.00
2023-03-13T05:35:09.252Z,2.00
2023-03-13T05:36:10.918Z,1.00
2023-03-13T05:37:13.607Z,1.00
2023-03-13T05:38:15.236Z,2.00
2023-03-13T05:39:17.832Z,1.00
2023-03-13T05:40:19.558Z,1.75
2023-03-13T05:41:22.138Z,1.00
2023-03-13T05:42:23.758Z,1.00
2023-03-13T05:43:26.334Z,1.00
2023-03-13T05:44:27.933Z,1.25
2023-03-13T05:45:30.577Z,1.00
2023-03-13T05:46:32.418Z,1.00
2023-03-13T05:47:35.038Z,1.00
2023-03-13T05:48:36.630Z,1.00
2023-03-13T05:49:40.561Z,1.00
2023-03-13T05:50:42.233Z,2.00
2023-03-13T05:51:44.818Z,1.00
2023-03-13T05:52:46.408Z,1.50
2023-03-13T05:53:48.994Z,2.00
2023-03-13T05:54:50.628Z,1.00
2023-03-13T05:55:53.301Z,1.00
2023-03-13T05:56:54.903Z,1.00
2023-03-13T05:57:57.487Z,1.00
2023-03-13T05:58:59.082Z,1.75
2023-03-13T06:00:01.687Z,1.00
2023-03-13T06:01:07.198Z,2.00
2023-03-13T06:02:09.787Z,1.00
2023-03-13T06:03:13.878Z,2.50
2023-03-13T06:04:17.021Z,1.25
2023-03-13T06:05:20.047Z,2.00
2023-03-13T06:06:22.798Z,1.00
2023-03-13T06:07:24.439Z,1.00
2023-03-13T06:08:27.796Z,1.00
2023-03-13T06:09:29.407Z,2.00
2023-03-13T06:10:32.060Z,1.00
2023-03-13T06:11:33.716Z,1.00
2023-03-13T06:12:36.639Z,1.00
2023-03-13T06:13:38.243Z,1.00
2023-03-13T06:14:40.818Z,1.00
2023-03-13T06:15:42.480Z,1.00
2023-03-13T06:16:45.279Z,1.25
2023-03-13T06:17:47.008Z,1.00
2023-03-13T06:18:49.596Z,1.00
2023-03-13T06:19:51.224Z,1.00
2023-03-13T06:20:59.176Z,1.00
2023-03-13T06:22:00.829Z,1.00
2023-03-13T06:23:03.406Z,1.00
2023-03-13T06:24:06.655Z,1.00
2023-03-13T06:25:10.122Z,1.00
2023-03-13T06:26:11.719Z,1.00
2023-03-13T06:27:14.373Z,1.00
2023-03-13T06:28:16.019Z,1.00
2023-03-13T06:29:18.710Z,1.00
2023-03-13T06:30:20.462Z,1.00
2023-03-13T06:31:23.259Z,2.00
2023-03-13T06:32:25.018Z,1.00
2023-03-13T06:33:27.785Z,1.00
2023-03-13T06:34:29.569Z,2.00
2023-03-13T06:35:32.210Z,2.00
2023-03-13T06:36:35.255Z,2.00
2023-03-13T06:37:38.029Z,1.50
2023-03-13T06:38:39.670Z,1.00
2023-03-13T06:39:42.304Z,1.00
2023-03-13T06:40:44.982Z,1.25
2023-03-13T06:41:48.464Z,1.00
2023-03-13T06:42:50.197Z,1.00
2023-03-13T06:43:52.833Z,1.00
2023-03-13T06:44:54.442Z,1.00
2023-03-13T06:45:57.061Z,1.25
2023-03-13T06:46:58.699Z,1.00
2023-03-13T06:48:01.485Z,1.00
2023-03-13T06:49:05.809Z,1.00
2023-03-13T06:50:09.297Z,2.00
2023-03-13T06:51:11.521Z,1.00
2023-03-13T06:52:15.468Z,1.00
2023-03-13T06:53:17.724Z,2.00
2023-03-13T06:54:20.322Z,1.00
2023-03-13T06:55:21.934Z,1.50
2023-03-13T06:56:24.596Z,1.00
2023-03-13T06:57:26.216Z,1.00
2023-03-13T06:58:32.423Z,1.75
2023-03-13T06:59:35.492Z,1.50
2023-03-13T07:00:39.916Z,1.00
2023-03-13T07:01:41.587Z,1.00
2023-03-13T07:02:44.182Z,1.00
2023-03-13T07:03:47.444Z,1.00
2023-03-13T07:04:50.029Z,1.00
2023-03-13T07:05:55.697Z,1.00
2023-03-13T07:06:58.288Z,1.00
2023-03-13T07:08:01.259Z,1.00
2023-03-13T07:09:05.097Z,2.00
2023-03-13T07:10:07.528Z,1.00
2023-03-13T07:11:10.716Z,1.00
2023-03-13T07:12:12.346Z,1.00
2023-03-13T07:13:14.939Z,1.00
2023-03-13T07:14:17.943Z,1.00
2023-03-13T07:15:19.621Z,1.00
2023-03-13T07:16:22.221Z,1.00
2023-03-13T07:17:24.879Z,2.00
2023-03-13T07:18:26.475Z,1.75
2023-03-13T07:19:29.114Z,1.75
2023-03-13T07:20:30.829Z,2.00
2023-03-13T07:21:33.463Z,1.25
2023-03-13T07:22:35.086Z,2.00
2023-03-13T07:23:39.019Z,1.00
2023-03-13T07:24:41.773Z,1.00
2023-03-13T07:25:43.405Z,1.00
2023-03-13T07:27:01.563Z,1.00
2023-03-13T12:07:45.709Z,5.00
2023-03-13T12:08:49.831Z,5.00
2023-03-13T12:09:54.463Z,4.00
2023-03-13T12:11:03.096Z,4.25
2023-03-13T12:12:06.618Z,2.00
2023-03-13T12:13:13.472Z,3.00
2023-03-13T12:14:17.370Z,5.00
2023-03-13T12:15:21.791Z,4.50
2023-03-13T12:16:26.715Z,4.00
2023-03-13T12:17:32.944Z,3.00
2023-03-13T12:18:36.716Z,4.00
2023-03-13T12:19:42.478Z,5.00
2023-03-13T12:20:47.246Z,2.00
2023-03-13T12:21:50.380Z,5.00
2023-03-13T12:22:58.360Z,4.75
2023-03-13T12:24:03.274Z,4.00
2023-03-13T12:25:06.731Z,4.00
2023-03-13T12:26:12.014Z,4.00
2023-03-13T12:27:15.674Z,3.50
2023-03-13T12:28:24.893Z,3.75
2023-03-13T12:29:35.100Z,5.00
2023-03-13T12:30:39.322Z,4.00
2023-03-13T12:31:42.735Z,3.75
2023-03-13T12:32:49.155Z,2.50
2023-03-13T12:33:53.921Z,2.00
2023-03-13T12:35:00.661Z,4.50
2023-03-13T12:36:06.974Z,4.25
2023-03-13T12:37:12.355Z,3.75
2023-03-13T12:38:18.450Z,3.75
2023-03-13T12:39:25.536Z,3.75
2023-03-13T12:40:30.213Z,3.75
2023-03-13T12:41:34.189Z,3.50
2023-03-13T12:42:41.753Z,4.00
2023-03-13T12:43:49.730Z,4.50
2023-03-13T12:44:59.936Z,5.00
2023-03-13T12:46:11.988Z,4.75
2023-03-13T12:47:16.886Z,3.75
2023-03-13T12:48:24.798Z,4.00
2023-03-13T12:50:14.153Z,3.75
2023-03-13T12:51:23.178Z,5.00
2023-03-13T12:52:51.943Z,4.50
2023-03-13T12:54:08.742Z,4.25
2023-03-13T12:55:24.268Z,5.00
2023-03-13T12:56:34.754Z,5.00
2023-03-13T12:58:03.537Z,4.50
2023-03-13T12:59:07.315Z,4.00
2023-03-13T13:00:12.811Z,5.50
2023-03-13T13:01:18.515Z,6.00
2023-03-13T13:02:21.622Z,3.75
2023-03-13T13:03:28.600Z,5.00
2023-03-13T13:04:32.016Z,3.75
2023-03-13T13:05:33.685Z,4.50
2023-03-13T13:07:02.416Z,5.25
2023-03-13T13:08:04.703Z,4.25
2023-03-13T13:09:10.199Z,6.00
2023-03-13T13:10:18.400Z,4.00
2023-03-13T13:11:52.157Z,5.50
2023-03-13T13:13:18.977Z,6.00
2023-03-13T13:14:57.660Z,5.00
2023-03-13T13:16:01.310Z,5.00
2023-03-13T13:17:15.837Z,4.75
2023-03-13T13:18:25.846Z,4.50
2023-03-13T13:19:46.287Z,5.00
2023-03-13T13:20:50.038Z,5.25
2023-03-13T13:22:25.889Z,5.00
2023-03-13T13:23:33.775Z,6.50
2023-03-13T13:24:50.056Z,5.75
2023-03-13T13:25:53.086Z,5.00
2023-03-13T13:26:55.815Z,6.00
2023-03-13T13:28:12.196Z,5.00
2023-03-13T13:29:58.187Z,5.00
2023-03-13T13:31:01.148Z,5.00
2023-03-13T13:32:04.070Z,5.00
2023-03-13T13:33:40.630Z,6.25
2023-03-13T13:34:54.652Z,6.00
2023-03-13T13:36:27.731Z,4.25
2023-03-13T13:37:29.365Z,5.00
2023-03-13T13:38:36.763Z,5.25
2023-03-13T13:39:39.837Z,5.25
2023-03-13T13:40:44.816Z,6.00
2023-03-13T13:41:47.530Z,5.00
2023-03-13T13:42:50.582Z,5.00
2023-03-13T13:44:23.850Z,5.00
2023-03-13T13:45:36.778Z,5.00
2023-03-13T13:46:44.207Z,4.75
2023-03-13T13:47:48.035Z,5.50
2023-03-13T13:49:07.817Z,5.00
2023-03-13T13:50:18.130Z,8.50
2023-03-13T13:51:25.072Z,5.00
2023-03-13T13:52:37.283Z,7.00
2023-03-13T13:53:43.118Z,7.00
2023-03-13T13:54:56.007Z,6.00
2023-03-13T13:55:59.019Z,5.50
2023-03-13T13:57:01.787Z,6.50
2023-03-13T13:58:04.394Z,6.00
2023-03-13T13:59:27.056Z,5.75
2023-03-13T14:00:30.432Z,8.00
2023-03-13T14:01:33.187Z,5.50
2023-03-13T14:02:36.027Z,7.50
2023-03-13T14:03:42.264Z,5.75
2023-03-13T14:04:46.242Z,7.75
2023-03-13T14:05:49.306Z,7.00
2023-03-13T14:06:50.964Z,7.75
2023-03-13T14:07:56.817Z,7.00
2023-03-13T14:09:02.389Z,6.00
2023-03-13T14:10:09.170Z,6.00
2023-03-13T14:11:23.920Z,7.75
2023-03-13T14:12:27.075Z,7.50
2023-03-13T14:13:29.761Z,8.25
2023-03-13T14:14:31.501Z,5.75
2023-03-13T14:15:34.637Z,7.00
2023-03-13T14:16:37.923Z,7.00
2023-03-13T14:17:40.961Z,7.25
2023-03-13T14:18:44.284Z,6.00
2023-03-13T14:19:45.930Z,8.00
2023-03-13T14:20:58.518Z,5.25
2023-03-13T14:22:01.015Z,5.50
2023-03-13T14:23:04.692Z,6.00
2023-03-13T14:24:13.280Z,5.50
2023-03-13T14:25:16.037Z,6.00
2023-03-13T14:26:20.841Z,6.50
2023-03-13T14:27:22.515Z,8.75
2023-03-13T14:28:25.888Z,5.75
2023-03-13T14:29:28.594Z,6.00
2023-03-13T14:30:30.416Z,5.75
2023-03-13T14:31:33.941Z,6.00
2023-03-13T14:32:35.774Z,6.75
2023-03-13T14:33:38.535Z,5.25
2023-03-13T14:34:40.196Z,6.00
2023-03-13T14:35:43.074Z,3.50
2023-03-13T14:36:48.664Z,5.00
2023-03-13T14:37:51.627Z,5.00
2023-03-13T14:38:55.692Z,5.50
2023-03-13T14:39:57.314Z,6.00
2023-03-13T14:40:59.949Z,9.00
2023-03-13T14:42:03.730Z,5.00
2023-03-13T14:43:06.662Z,6.00
2023-03-13T14:44:15.214Z,5.00
2023-03-13T14:45:21.552Z,3.00
2023-03-13T14:46:28.230Z,5.25
2023-03-13T14:47:31.539Z,5.50
2023-03-13T14:48:34.405Z,5.00
2023-03-13T14:49:36.224Z,5.00
2023-03-13T14:50:38.944Z,3.00
2023-03-13T14:51:40.675Z,3.00
2023-03-13T14:52:46.241Z,5.00
2023-03-13T14:53:56.564Z,5.00
2023-03-13T14:55:02.123Z,3.00
2023-03-13T14:56:12.248Z,5.75
2023-03-13T14:57:17.455Z,5.75
2023-03-13T14:58:27.628Z,6.00
2023-03-13T14:59:30.215Z,6.00
2023-03-13T15:00:38.968Z,5.00
2023-03-13T15:01:40.665Z,5.00
2023-03-13T15:02:43.274Z,6.00
2023-03-13T15:03:46.968Z,6.00
2023-03-13T15:04:56.211Z,5.25
2023-03-13T15:06:15.878Z,5.00
2023-03-13T15:07:18.756Z,5.25
2023-03-13T15:08:22.548Z,5.00
2023-03-13T15:09:25.129Z,4.00
2023-03-13T15:10:31.380Z,5.00
2023-03-13T15:11:34.827Z,5.00
2023-03-13T15:12:44.454Z,5.00
2023-03-13T15:13:46.084Z,3.00
2023-03-13T15:14:49.220Z,5.00
2023-03-13T15:15:50.944Z,2.75
2023-03-13T15:16:53.737Z,5.25
2023-03-13T15:17:56.464Z,5.00
2023-03-13T15:18:58.085Z,3.75
2023-03-13T15:20:00.687Z,5.00
2023-03-13T15:21:20.118Z,4.00
2023-03-13T15:22:26.994Z,4.25
2023-03-13T15:23:30.254Z,3.00
2023-03-13T15:24:32.892Z,5.00
2023-03-13T15:25:34.558Z,3.00
2023-03-13T15:26:37.215Z,3.00
2023-03-13T15:27:39.362Z,3.00
2023-03-13T15:28:43.426Z,2.25
2023-03-13T15:29:45.151Z,3.00
2023-03-13T15:30:49.247Z,3.50
2023-03-13T15:31:50.909Z,4.50
2023-03-13T15:32:53.751Z,3.00
2023-03-13T15:33:57.446Z,3.00
2023-03-13T15:35:01.802Z,2.75
2023-03-13T15:36:04.022Z,2.25
2023-03-13T15:37:06.614Z,2.75
2023-03-13T15:38:11.463Z,2.25
2023-03-13T15:39:15.649Z,2.75
2023-03-13T15:40:18.865Z,2.50
2023-03-13T15:41:21.826Z,5.00
2023-03-13T15:42:24.710Z,2.25
2023-03-13T15:43:27.303Z,3.00
2023-03-13T15:44:30.378Z,4.50
2023-03-13T15:45:33.021Z,2.75
2023-03-13T15:46:35.696Z,3.00
2023-03-13T15:47:38.387Z,2.50
2023-03-13T15:48:41.327Z,3.00
2023-03-13T15:49:44.077Z,2.25
2023-03-13T15:50:45.796Z,3.00
2023-03-13T15:51:48.367Z,2.00
2023-03-13T15:52:51.002Z,2.25
2023-03-13T15:53:53.604Z,3.00
2023-03-13T15:54:56.578Z,2.75
2023-03-13T15:56:00.342Z,3.00
2023-03-13T15:57:03.300Z,2.75
2023-03-13T15:58:05.883Z,4.00
2023-03-13T15:59:12.836Z,5.75
2023-03-13T16:00:20.141Z,3.00
2023-03-13T16:01:23.426Z,5.00
2023-03-13T16:02:25.191Z,2.00
2023-03-13T16:03:28.829Z,2.00
2023-03-13T16:04:33.016Z,2.00
2023-03-13T16:05:35.690Z,2.00
2023-03-13T16:06:38.385Z,2.00
2023-03-13T16:07:39.994Z,3.00
2023-03-13T16:08:42.578Z,2.50
2023-03-13T16:09:45.313Z,2.00
2023-03-13T16:10:48.033Z,2.00
2023-03-13T16:11:49.643Z,2.00
2023-03-13T16:12:52.724Z,2.00
2023-03-13T16:13:56.032Z,2.00
2023-03-13T16:14:58.608Z,2.25
2023-03-13T16:16:03.012Z,2.00
2023-03-13T16:17:11.992Z,1.75
2023-03-13T16:18:15.997Z,2.00
2023-03-13T16:19:18.583Z,2.00
2023-03-13T16:20:21.600Z,2.00
2023-03-13T16:21:26.019Z,2.00
2023-03-13T16:22:28.614Z,2.00
2023-03-13T16:23:32.157Z,2.00
2023-03-13T16:24:34.807Z,2.50
2023-03-13T16:25:37.446Z,2.00
2023-03-13T16:26:39.291Z,2.00
2023-03-13T16:27:42.444Z,1.50
2023-03-13T16:28:44.231Z,1.50
2023-03-13T16:29:47.027Z,2.00
2023-03-13T16:30:52.636Z,3.00
2023-03-13T16:31:56.747Z,2.25
2023-03-13T16:32:58.625Z,3.00
2023-03-13T16:34:02.208Z,2.25
2023-03-13T16:35:04.791Z,3.00
2023-03-13T16:36:12.491Z,2.25
2023-03-13T16:37:16.095Z,2.00
2023-03-13T16:38:19.047Z,2.00
2023-03-13T16:39:21.623Z,2.00
2023-03-13T16:40:25.482Z,2.00
2023-03-13T16:41:28.490Z,3.00
2023-03-13T16:42:30.269Z,3.00
2023-03-13T16:43:32.869Z,2.00
2023-03-13T16:44:35.457Z,2.75
2023-03-13T16:45:37.054Z,2.00
2023-03-13T16:46:40.601Z,1.75
2023-03-13T16:47:45.188Z,2.00
2023-03-13T16:48:47.197Z,2.00
2023-03-13T16:49:50.103Z,2.00
2023-03-13T16:50:51.712Z,2.00
2023-03-13T16:51:54.282Z,2.00
2023-03-13T16:52:56.023Z,1.00
2023-03-13T16:54:00.294Z,1.50
2023-03-13T16:55:01.896Z,2.00
2023-03-13T16:56:04.659Z,2.00
2023-03-13T16:57:09.356Z,2.00
2023-03-13T16:58:12.062Z,3.00
2023-03-13T16:59:14.466Z,2.00
2023-03-13T17:00:18.399Z,3.00
2023-03-13T17:01:21.031Z,3.00
2023-03-13T17:02:22.656Z,2.50
2023-03-13T17:03:26.645Z,1.25
2023-03-13T17:04:28.310Z,2.00
2023-03-13T17:05:30.958Z,2.00
2023-03-13T17:06:34.981Z,3.00
2023-03-13T17:07:38.610Z,2.00
2023-03-13T17:08:40.578Z,2.00
2023-03-13T17:09:43.158Z,1.75
2023-03-13T17:10:44.792Z,2.00
2023-03-13T17:11:47.411Z,2.00
2023-03-13T17:12:49.055Z,2.00
2023-03-13T17:13:52.315Z,2.00
2023-03-13T17:14:53.934Z,1.50
2023-03-13T17:15:56.735Z,2.00
2023-03-13T17:16:59.455Z,2.00
2023-03-13T17:18:01.056Z,3.00
2023-03-13T17:19:06.477Z,2.00
2023-03-13T17:20:13.546Z,1.00
2023-03-13T17:21:17.607Z,2.00
2023-03-13T17:22:19.261Z,2.00
2023-03-13T17:23:21.913Z,2.50
2023-03-13T17:24:23.690Z,2.00
2023-03-13T17:25:26.276Z,2.00
2023-03-13T17:26:28.870Z,2.00
2023-03-13T17:27:31.440Z,2.00
2023-03-13T17:28:34.053Z,1.00
2023-03-13T17:29:36.702Z,2.00
2023-03-13T17:30:38.312Z,2.00
2023-03-13T17:31:40.933Z,2.50
2023-03-13T17:32:43.580Z,2.00
2023-03-13T17:33:46.242Z,2.00
2023-03-13T17:34:49.292Z,2.00
2023-03-13T17:35:51.907Z,2.00
2023-03-13T17:36:53.527Z,2.00
2023-03-13T17:37:56.124Z,2.00
2023-03-13T17:38:58.738Z,2.00
2023-03-13T17:40:01.382Z,2.00
2023-03-13T17:41:03.043Z,2.00
2023-03-13T17:42:06.049Z,2.00
2023-03-13T17:43:09.803Z,3.00
2023-03-13T17:44:12.392Z,2.00
2023-03-13T17:45:14.305Z,3.00
2023-03-13T17:46:19.115Z,2.00
2023-03-13T17:47:23.770Z,3.00
2023-03-13T17:48:27.675Z,1.75
2023-03-13T17:49:30.949Z,2.25
2023-03-13T17:50:35.235Z,2.50
2023-03-13T17:51:38.014Z,5.00
2023-03-13T17:52:39.756Z,2.75
2023-03-13T17:53:42.422Z,3.00
2023-03-13T17:54:44.412Z,3.00
2023-03-13T17:55:47.126Z,2.00
2023-03-13T17:56:50.562Z,3.00
2023-03-13T17:57:53.608Z,2.00
2023-03-13T17:58:57.684Z,2.00
2023-03-13T18:00:00.363Z,2.00
2023-03-13T18:01:02.330Z,2.50
2023-03-13T18:02:05.052Z,3.00
2023-03-13T18:03:07.754Z,2.75
2023-03-13T18:04:10.265Z,2.00
2023-03-13T18:05:12.839Z,2.00
2023-03-13T18:06:21.725Z,2.00
2023-03-13T18:07:26.644Z,3.00
2023-03-13T18:08:29.926Z,2.00
2023-03-13T18:09:31.575Z,2.00
2023-03-13T18:10:34.276Z,2.00
2023-03-13T18:11:39.428Z,2.00
2023-03-13T18:12:41.038Z,2.00
2023-03-13T18:13:43.924Z,2.50
2023-03-13T18:14:46.721Z,2.75
2023-03-13T18:15:48.421Z,2.00
2023-03-13T18:16:54.464Z,2.00
2023-03-13T18:17:57.037Z,2.00
2023-03-13T18:18:58.684Z,2.75
2023-03-13T18:20:01.384Z,2.00
2023-03-13T18:21:03.284Z,2.00
2023-03-13T18:22:13.461Z,2.00
2023-03-13T18:23:16.156Z,2.00
2023-03-13T18:24:17.868Z,2.00
2023-03-13T18:25:20.445Z,2.00
2023-03-13T18:26:27.210Z,2.00
2023-03-13T18:27:29.864Z,2.50
2023-03-13T18:28:31.471Z,3.50
2023-03-13T18:29:34.083Z,4.75
2023-03-13T18:30:38.876Z,3.00
2023-03-13T18:31:43.536Z,6.00
2023-03-13T18:32:46.721Z,3.50
2023-03-13T18:33:48.423Z,1.50
2023-03-13T18:34:51.251Z,3.00
2023-03-13T18:35:53.870Z,3.00
2023-03-13T18:36:56.560Z,2.75
2023-03-13T18:38:01.214Z,2.00
2023-03-13T18:39:04.318Z,2.75
2023-03-13T18:40:15.842Z,3.00
2023-03-13T18:41:17.854Z,3.00
2023-03-13T18:42:20.496Z,7.00
2023-03-13T18:43:23.103Z,3.00
2023-03-13T18:44:25.818Z,5.50
2023-03-13T18:45:28.710Z,3.00
2023-03-13T18:46:31.990Z,3.00
2023-03-13T18:47:34.732Z,3.00
2023-03-13T18:48:37.632Z,5.00
2023-03-13T18:49:40.397Z,5.00
2023-03-13T18:50:42.963Z,5.75
2023-03-13T18:51:44.665Z,6.00